sensor_id;sensor_type;location;lat;lon;timestamp;P1;durP1;ratioP1;P2;durP2;ratioP2
3733;SDS011;1882;52.256;8.874;2023-09-08T00:01:55;8.80;;;6.30;;
3733;SDS011;1882;52.256;8.874;2023-09-08T00:04:22;11.80;;;6.63;;
3733;SDS011;1882;52.256;8.874;2023-09-08T00:06:49;7.97;;;6.23;;
3733;SDS011;1882;52.256;8.874;2023-09-08T00:09:17;9.60;;;6.10;;
3733;SDS011;1882;52.256;8.874;2023-09-08T00:11:54;6.50;;;5.90;;
3733;SDS011;1882;52.256;8.874;2023-09-08T00:14:21;8.33;;;6.33;;
3733;SDS011;1882;52.256;8.874;2023-09-08T00:16:47;8.93;;;6.63;;
3733;SDS011;1882;52.256;8.874;2023-09-08T00:19:27;7.40;;;5.87;;
3733;SDS011;1882;52.256;8.874;2023-09-08T00:21:58;8.60;;;6.80;;
3733;SDS011;1882;52.256;8.874;2023-09-08T00:24:24;10.47;;;6.57;;
3733;SDS011;1882;52.256;8.874;2023-09-08T00:26:51;10.30;;;6.60;;
3733;SDS011;1882;52.256;8.874;2023-09-08T00:29:18;8.53;;;6.63;;
3733;SDS011;1882;52.256;8.874;2023-09-08T00:31:50;10.27;;;6.37;;
3733;SDS011;1882;52.256;8.874;2023-09-08T00:34:21;8.80;;;6.70;;
3733;SDS011;1882;52.256;8.874;2023-09-08T00:36:48;8.20;;;6.40;;
3733;SDS011;1882;52.256;8.874;2023-09-08T00:39:20;8.03;;;6.17;;
3733;SDS011;1882;52.256;8.874;2023-09-08T00:41:50;9.33;;;6.17;;
3733;SDS011;1882;52.256;8.874;2023-09-08T00:44:19;8.50;;;6.10;;
3733;SDS011;1882;52.256;8.874;2023-09-08T00:46:55;8.47;;;6.20;;
3733;SDS011;1882;52.256;8.874;2023-09-08T00:49:22;9.10;;;5.87;;
3733;SDS011;1882;52.256;8.874;2023-09-08T00:51:49;10.33;;;6.00;;
3733;SDS011;1882;52.256;8.874;2023-09-08T00:54:16;10.40;;;5.93;;
3733;SDS011;1882;52.256;8.874;2023-09-08T00:56:45;10.47;;;6.00;;
3733;SDS011;1882;52.256;8.874;2023-09-08T00:59:13;11.83;;;5.97;;
3733;SDS011;1882;52.256;8.874;2023-09-08T01:01:39;8.37;;;6.03;;
3733;SDS011;1882;52.256;8.874;2023-09-08T01:04:06;6.80;;;6.03;;
3733;SDS011;1882;52.256;8.874;2023-09-08T01:06:33;7.07;;;5.50;;
3733;SDS011;1882;52.256;8.874;2023-09-08T01:09:00;8.70;;;6.07;;
3733;SDS011;1882;52.256;8.874;2023-09-08T01:11:27;8.57;;;6.00;;
3733;SDS011;1882;52.256;8.874;2023-09-08T01:13:53;9.13;;;6.60;;
3733;SDS011;1882;52.256;8.874;2023-09-08T01:16:20;9.87;;;6.23;;
3733;SDS011;1882;52.256;8.874;2023-09-08T01:18:47;12.40;;;6.30;;
3733;SDS011;1882;52.256;8.874;2023-09-08T01:26:54;8.43;;;6.47;;
3733;SDS011;1882;52.256;8.874;2023-09-08T01:29:20;8.93;;;6.27;;
3733;SDS011;1882;52.256;8.874;2023-09-08T01:31:49;8.07;;;6.43;;
3733;SDS011;1882;52.256;8.874;2023-09-08T01:34:18;8.20;;;6.03;;
3733;SDS011;1882;52.256;8.874;2023-09-08T01:36:47;8.63;;;6.77;;
3733;SDS011;1882;52.256;8.874;2023-09-08T01:39:21;12.10;;;7.10;;
3733;SDS011;1882;52.256;8.874;2023-09-08T01:41:48;8.90;;;7.10;;
3733;SDS011;1882;52.256;8.874;2023-09-08T01:44:14;9.40;;;7.20;;
3733;SDS011;1882;52.256;8.874;2023-09-08T01:46:43;9.47;;;7.20;;
3733;SDS011;1882;52.256;8.874;2023-09-08T01:49:10;9.63;;;7.20;;
3733;SDS011;1882;52.256;8.874;2023-09-08T01:51:37;11.20;;;8.30;;
3733;SDS011;1882;52.256;8.874;2023-09-08T01:54:04;11.77;;;8.40;;
3733;SDS011;1882;52.256;8.874;2023-09-08T01:56:31;9.80;;;7.23;;
3733;SDS011;1882;52.256;8.874;2023-09-08T01:58:57;7.97;;;6.33;;
3733;SDS011;1882;52.256;8.874;2023-09-08T02:01:26;8.50;;;6.50;;
3733;SDS011;1882;52.256;8.874;2023-09-08T02:03:53;7.77;;;6.27;;
3733;SDS011;1882;52.256;8.874;2023-09-08T02:06:19;7.57;;;6.53;;
3733;SDS011;1882;52.256;8.874;2023-09-08T02:08:46;8.27;;;6.60;;
3733;SDS011;1882;52.256;8.874;2023-09-08T02:11:12;6.70;;;6.00;;
3733;SDS011;1882;52.256;8.874;2023-09-08T02:13:41;11.67;;;6.57;;
3733;SDS011;1882;52.256;8.874;2023-09-08T02:16:12;8.47;;;6.37;;
3733;SDS011;1882;52.256;8.874;2023-09-08T02:18:41;7.17;;;5.80;;
3733;SDS011;1882;52.256;8.874;2023-09-08T02:21:09;8.67;;;6.60;;
3733;SDS011;1882;52.256;8.874;2023-09-08T02:23:35;11.47;;;7.10;;
3733;SDS011;1882;52.256;8.874;2023-09-08T02:26:02;7.97;;;6.37;;
3733;SDS011;1882;52.256;8.874;2023-09-08T02:28:29;8.90;;;6.23;;
3733;SDS011;1882;52.256;8.874;2023-09-08T02:30:57;9.83;;;6.30;;
3733;SDS011;1882;52.256;8.874;2023-09-08T02:33:33;8.67;;;6.30;;
3733;SDS011;1882;52.256;8.874;2023-09-08T02:36:03;7.83;;;5.40;;
3733;SDS011;1882;52.256;8.874;2023-09-08T02:38:32;11.00;;;7.17;;
3733;SDS011;1882;52.256;8.874;2023-09-08T02:41:00;9.80;;;6.23;;
3733;SDS011;1882;52.256;8.874;2023-09-08T02:43:27;8.90;;;6.47;;
3733;SDS011;1882;52.256;8.874;2023-09-08T02:45:54;10.40;;;6.37;;
3733;SDS011;1882;52.256;8.874;2023-09-08T02:48:21;8.93;;;6.80;;
3733;SDS011;1882;52.256;8.874;2023-09-08T02:50:48;10.30;;;6.53;;
3733;SDS011;1882;52.256;8.874;2023-09-08T02:53:15;7.87;;;6.33;;
3733;SDS011;1882;52.256;8.874;2023-09-08T02:55:42;10.93;;;6.73;;
3733;SDS011;1882;52.256;8.874;2023-09-08T02:58:08;7.50;;;6.50;;
3733;SDS011;1882;52.256;8.874;2023-09-08T03:00:35;7.00;;;6.30;;
3733;SDS011;1882;52.256;8.874;2023-09-08T03:03:02;8.13;;;6.20;;
3733;SDS011;1882;52.256;8.874;2023-09-08T03:05:31;12.53;;;6.90;;
3733;SDS011;1882;52.256;8.874;2023-09-08T03:08:01;7.27;;;6.30;;
3733;SDS011;1882;52.256;8.874;2023-09-08T03:10:27;7.90;;;6.30;;
3733;SDS011;1882;52.256;8.874;2023-09-08T03:12:56;10.90;;;7.00;;
3733;SDS011;1882;52.256;8.874;2023-09-08T03:15:22;10.37;;;6.63;;
3733;SDS011;1882;52.256;8.874;2023-09-08T03:17:49;8.90;;;7.13;;
3733;SDS011;1882;52.256;8.874;2023-09-08T03:20:16;10.13;;;6.50;;
3733;SDS011;1882;52.256;8.874;2023-09-08T03:22:43;8.57;;;6.40;;
3733;SDS011;1882;52.256;8.874;2023-09-08T03:25:09;11.33;;;6.50;;
3733;SDS011;1882;52.256;8.874;2023-09-08T03:27:40;9.23;;;6.50;;
3733;SDS011;1882;52.256;8.874;2023-09-08T03:30:07;8.43;;;6.40;;
3733;SDS011;1882;52.256;8.874;2023-09-08T03:32:43;8.20;;;5.80;;
3733;SDS011;1882;52.256;8.874;2023-09-08T03:35:11;7.80;;;6.20;;
3733;SDS011;1882;52.256;8.874;2023-09-08T03:37:41;7.80;;;6.50;;
3733;SDS011;1882;52.256;8.874;2023-09-08T03:40:08;9.60;;;6.50;;
3733;SDS011;1882;52.256;8.874;2023-09-08T03:42:40;11.20;;;6.70;;
3733;SDS011;1882;52.256;8.874;2023-09-08T03:45:08;8.30;;;6.23;;
3733;SDS011;1882;52.256;8.874;2023-09-08T03:47:43;9.03;;;6.60;;
3733;SDS011;1882;52.256;8.874;2023-09-08T03:50:10;9.03;;;6.40;;
3733;SDS011;1882;52.256;8.874;2023-09-08T03:52:41;10.90;;;6.30;;
3733;SDS011;1882;52.256;8.874;2023-09-08T03:55:08;7.73;;;6.07;;
3733;SDS011;1882;52.256;8.874;2023-09-08T03:57:34;7.87;;;6.13;;
3733;SDS011;1882;52.256;8.874;2023-09-08T04:00:01;8.13;;;6.63;;
3733;SDS011;1882;52.256;8.874;2023-09-08T04:02:39;11.27;;;6.10;;
3733;SDS011;1882;52.256;8.874;2023-09-08T04:05:07;11.20;;;6.00;;
3733;SDS011;1882;52.256;8.874;2023-09-08T04:07:37;8.70;;;5.70;;
3733;SDS011;1882;52.256;8.874;2023-09-08T04:10:04;10.77;;;5.97;;
3733;SDS011;1882;52.256;8.874;2023-09-08T04:12:31;9.90;;;6.00;;
3733;SDS011;1882;52.256;8.874;2023-09-08T04:14:58;10.90;;;6.47;;
3733;SDS011;1882;52.256;8.874;2023-09-08T04:17:25;10.90;;;6.40;;
3733;SDS011;1882;52.256;8.874;2023-09-08T04:19:51;11.90;;;5.90;;
3733;SDS011;1882;52.256;8.874;2023-09-08T04:22:18;10.10;;;6.33;;
3733;SDS011;1882;52.256;8.874;2023-09-08T04:24:45;8.80;;;6.33;;
3733;SDS011;1882;52.256;8.874;2023-09-08T04:27:12;7.57;;;5.97;;
3733;SDS011;1882;52.256;8.874;2023-09-08T04:29:41;8.10;;;6.10;;
3733;SDS011;1882;52.256;8.874;2023-09-08T04:32:07;6.73;;;6.00;;
3733;SDS011;1882;52.256;8.874;2023-09-08T04:34:38;9.63;;;6.47;;
3733;SDS011;1882;52.256;8.874;2023-09-08T04:37:06;8.70;;;6.07;;
3733;SDS011;1882;52.256;8.874;2023-09-08T04:39:33;11.23;;;6.00;;
3733;SDS011;1882;52.256;8.874;2023-09-08T04:42:00;9.83;;;6.37;;
3733;SDS011;1882;52.256;8.874;2023-09-08T04:44:27;9.23;;;6.10;;
3733;SDS011;1882;52.256;8.874;2023-09-08T04:46:55;7.50;;;5.83;;
3733;SDS011;1882;52.256;8.874;2023-09-08T04:49:21;11.80;;;6.20;;
3733;SDS011;1882;52.256;8.874;2023-09-08T04:51:48;8.10;;;6.03;;
3733;SDS011;1882;52.256;8.874;2023-09-08T04:54:22;9.97;;;5.93;;
3733;SDS011;1882;52.256;8.874;2023-09-08T04:56:54;9.50;;;6.30;;
3733;SDS011;1882;52.256;8.874;2023-09-08T04:59:46;6.60;;;5.80;;
3733;SDS011;1882;52.256;8.874;2023-09-08T05:02:12;9.60;;;6.43;;
3733;SDS011;1882;52.256;8.874;2023-09-08T05:04:39;9.33;;;6.50;;
3733;SDS011;1882;52.256;8.874;2023-09-08T05:07:06;8.00;;;6.27;;
3733;SDS011;1882;52.256;8.874;2023-09-08T05:09:32;9.57;;;6.10;;
3733;SDS011;1882;52.256;8.874;2023-09-08T05:12:00;7.30;;;6.53;;
3733;SDS011;1882;52.256;8.874;2023-09-08T05:14:28;9.07;;;6.33;;
3733;SDS011;1882;52.256;8.874;2023-09-08T05:16:54;8.87;;;6.07;;
3733;SDS011;1882;52.256;8.874;2023-09-08T05:19:26;8.23;;;6.47;;
3733;SDS011;1882;52.256;8.874;2023-09-08T05:21:54;7.33;;;5.77;;
3733;SDS011;1882;52.256;8.874;2023-09-08T05:24:21;8.60;;;6.63;;
3733;SDS011;1882;52.256;8.874;2023-09-08T05:26:49;7.47;;;5.90;;
3733;SDS011;1882;52.256;8.874;2023-09-08T05:29:23;8.97;;;6.30;;
3733;SDS011;1882;52.256;8.874;2023-09-08T05:31:57;12.20;;;6.13;;
3733;SDS011;1882;52.256;8.874;2023-09-08T05:34:24;8.93;;;6.40;;
3733;SDS011;1882;52.256;8.874;2023-09-08T05:36:54;7.60;;;5.67;;
3733;SDS011;1882;52.256;8.874;2023-09-08T05:39:21;9.73;;;6.47;;
3733;SDS011;1882;52.256;8.874;2023-09-08T05:41:48;7.60;;;6.00;;
3733;SDS011;1882;52.256;8.874;2023-09-08T05:44:20;6.60;;;5.90;;
3733;SDS011;1882;52.256;8.874;2023-09-08T05:46:52;6.80;;;5.87;;
3733;SDS011;1882;52.256;8.874;2023-09-08T05:49:19;8.33;;;5.63;;
3733;SDS011;1882;52.256;8.874;2023-09-08T05:51:51;7.67;;;6.00;;
3733;SDS011;1882;52.256;8.874;2023-09-08T05:54:18;6.20;;;5.60;;
3733;SDS011;1882;52.256;8.874;2023-09-08T05:56:52;8.67;;;5.70;;
3733;SDS011;1882;52.256;8.874;2023-09-08T05:59:27;6.87;;;5.87;;
3733;SDS011;1882;52.256;8.874;2023-09-08T06:01:54;7.20;;;6.00;;
3733;SDS011;1882;52.256;8.874;2023-09-08T06:04:21;8.70;;;5.60;;
3733;SDS011;1882;52.256;8.874;2023-09-08T06:06:50;9.50;;;5.77;;
3733;SDS011;1882;52.256;8.874;2023-09-08T06:09:20;9.93;;;5.90;;
3733;SDS011;1882;52.256;8.874;2023-09-08T06:11:49;8.43;;;5.73;;
3733;SDS011;1882;52.256;8.874;2023-09-08T06:14:17;6.57;;;5.50;;
3733;SDS011;1882;52.256;8.874;2023-09-08T06:16:46;8.10;;;5.53;;
3733;SDS011;1882;52.256;8.874;2023-09-08T06:19:13;6.53;;;5.40;;
3733;SDS011;1882;52.256;8.874;2023-09-08T06:21:40;7.10;;;5.60;;
3733;SDS011;1882;52.256;8.874;2023-09-08T06:24:09;8.47;;;6.17;;
3733;SDS011;1882;52.256;8.874;2023-09-08T06:26:36;7.53;;;5.70;;
3733;SDS011;1882;52.256;8.874;2023-09-08T06:29:04;6.60;;;5.53;;
3733;SDS011;1882;52.256;8.874;2023-09-08T06:31:31;7.20;;;5.60;;
3733;SDS011;1882;52.256;8.874;2023-09-08T06:34:00;6.30;;;5.70;;
3733;SDS011;1882;52.256;8.874;2023-09-08T06:36:27;7.83;;;5.77;;
3733;SDS011;1882;52.256;8.874;2023-09-08T06:38:54;6.17;;;5.63;;
3733;SDS011;1882;52.256;8.874;2023-09-08T06:41:21;6.87;;;5.57;;
3733;SDS011;1882;52.256;8.874;2023-09-08T06:43:51;6.37;;;5.33;;
3733;SDS011;1882;52.256;8.874;2023-09-08T06:46:21;6.70;;;6.00;;
3733;SDS011;1882;52.256;8.874;2023-09-08T06:48:48;6.70;;;6.00;;
3733;SDS011;1882;52.256;8.874;2023-09-08T06:51:14;7.57;;;5.90;;
3733;SDS011;1882;52.256;8.874;2023-09-08T06:53:42;9.40;;;5.90;;
3733;SDS011;1882;52.256;8.874;2023-09-08T06:56:18;9.27;;;6.00;;
3733;SDS011;1882;52.256;8.874;2023-09-08T06:58:45;8.67;;;6.30;;
3733;SDS011;1882;52.256;8.874;2023-09-08T07:01:11;7.00;;;5.80;;
3733;SDS011;1882;52.256;8.874;2023-09-08T07:03:49;8.00;;;5.73;;
3733;SDS011;1882;52.256;8.874;2023-09-08T07:06:16;7.90;;;6.23;;
3733;SDS011;1882;52.256;8.874;2023-09-08T07:08:43;8.30;;;6.60;;
3733;SDS011;1882;52.256;8.874;2023-09-08T07:11:10;9.73;;;6.33;;
3733;SDS011;1882;52.256;8.874;2023-09-08T07:13:36;9.63;;;6.40;;
3733;SDS011;1882;52.256;8.874;2023-09-08T07:16:08;8.83;;;6.07;;
3733;SDS011;1882;52.256;8.874;2023-09-08T07:18:36;10.03;;;6.00;;
3733;SDS011;1882;52.256;8.874;2023-09-08T07:21:10;7.10;;;6.40;;
3733;SDS011;1882;52.256;8.874;2023-09-08T07:23:37;7.60;;;6.50;;
3733;SDS011;1882;52.256;8.874;2023-09-08T07:26:10;12.60;;;7.10;;
3733;SDS011;1882;52.256;8.874;2023-09-08T07:28:40;7.30;;;6.33;;
3733;SDS011;1882;52.256;8.874;2023-09-08T07:31:11;7.10;;;6.40;;
3733;SDS011;1882;52.256;8.874;2023-09-08T07:33:43;8.13;;;6.27;;
3733;SDS011;1882;52.256;8.874;2023-09-08T07:36:10;9.03;;;6.80;;
3733;SDS011;1882;52.256;8.874;2023-09-08T07:38:39;9.17;;;6.20;;
3733;SDS011;1882;52.256;8.874;2023-09-08T07:41:06;9.37;;;6.37;;
3733;SDS011;1882;52.256;8.874;2023-09-08T07:43:36;7.33;;;6.63;;
3733;SDS011;1882;52.256;8.874;2023-09-08T07:46:09;8.77;;;6.30;;
3733;SDS011;1882;52.256;8.874;2023-09-08T07:48:35;9.27;;;6.90;;
3733;SDS011;1882;52.256;8.874;2023-09-08T07:51:05;7.37;;;6.57;;
3733;SDS011;1882;52.256;8.874;2023-09-08T07:53:41;19.37;;;6.70;;
3733;SDS011;1882;52.256;8.874;2023-09-08T07:56:08;8.33;;;6.33;;
3733;SDS011;1882;52.256;8.874;2023-09-08T07:58:35;7.50;;;6.50;;
3733;SDS011;1882;52.256;8.874;2023-09-08T08:01:10;7.57;;;6.40;;
3733;SDS011;1882;52.256;8.874;2023-09-08T08:03:39;8.03;;;6.80;;
3733;SDS011;1882;52.256;8.874;2023-09-08T08:06:08;9.53;;;6.90;;
3733;SDS011;1882;52.256;8.874;2023-09-08T08:08:37;9.43;;;7.10;;
3733;SDS011;1882;52.256;8.874;2023-09-08T08:11:23;9.47;;;6.40;;
3733;SDS011;1882;52.256;8.874;2023-09-08T08:13:50;8.77;;;6.40;;
3733;SDS011;1882;52.256;8.874;2023-09-08T08:16:16;7.63;;;6.40;;
3733;SDS011;1882;52.256;8.874;2023-09-08T08:18:44;7.50;;;6.70;;
3733;SDS011;1882;52.256;8.874;2023-09-08T08:21:10;7.20;;;6.50;;
3733;SDS011;1882;52.256;8.874;2023-09-08T08:23:40;8.70;;;6.77;;
3733;SDS011;1882;52.256;8.874;2023-09-08T08:26:07;18.33;;;6.87;;
3733;SDS011;1882;52.256;8.874;2023-09-08T08:28:34;6.93;;;6.17;;
3733;SDS011;1882;52.256;8.874;2023-09-08T08:31:01;9.03;;;7.30;;
3733;SDS011;1882;52.256;8.874;2023-09-08T08:33:29;8.10;;;6.50;;
3733;SDS011;1882;52.256;8.874;2023-09-08T08:36:00;7.63;;;6.03;;
3733;SDS011;1882;52.256;8.874;2023-09-08T08:38:29;11.50;;;6.83;;
3733;SDS011;1882;52.256;8.874;2023-09-08T08:41:05;8.80;;;6.40;;
3733;SDS011;1882;52.256;8.874;2023-09-08T08:43:34;7.27;;;6.57;;
3733;SDS011;1882;52.256;8.874;2023-09-08T08:46:03;7.40;;;6.40;;
3733;SDS011;1882;52.256;8.874;2023-09-08T08:48:33;7.80;;;6.73;;
3733;SDS011;1882;52.256;8.874;2023-09-08T08:51:21;10.40;;;6.83;;
3733;SDS011;1882;52.256;8.874;2023-09-08T08:53:49;10.20;;;6.60;;
3733;SDS011;1882;52.256;8.874;2023-09-08T08:56:16;7.70;;;6.33;;
3733;SDS011;1882;52.256;8.874;2023-09-08T08:58:44;7.17;;;6.47;;
3733;SDS011;1882;52.256;8.874;2023-09-08T09:01:11;7.47;;;6.60;;
3733;SDS011;1882;52.256;8.874;2023-09-08T09:03:38;9.50;;;6.83;;
3733;SDS011;1882;52.256;8.874;2023-09-08T09:06:10;7.77;;;5.90;;
3733;SDS011;1882;52.256;8.874;2023-09-08T09:08:40;9.17;;;5.97;;
3733;SDS011;1882;52.256;8.874;2023-09-08T09:11:09;8.20;;;6.30;;
3733;SDS011;1882;52.256;8.874;2023-09-08T09:13:39;6.90;;;6.20;;
3733;SDS011;1882;52.256;8.874;2023-09-08T09:16:05;9.77;;;6.37;;
3733;SDS011;1882;52.256;8.874;2023-09-08T09:18:58;11.80;;;6.90;;
3733;SDS011;1882;52.256;8.874;2023-09-08T09:21:42;6.70;;;6.00;;
3733;SDS011;1882;52.256;8.874;2023-09-08T09:24:13;13.10;;;6.63;;
3733;SDS011;1882;52.256;8.874;2023-09-08T09:26:46;9.40;;;6.63;;
3733;SDS011;1882;52.256;8.874;2023-09-08T09:29:20;15.00;;;6.60;;
3733;SDS011;1882;52.256;8.874;2023-09-08T09:31:58;7.83;;;6.00;;
3733;SDS011;1882;52.256;8.874;2023-09-08T09:34:29;11.77;;;6.80;;
3733;SDS011;1882;52.256;8.874;2023-09-08T09:36:56;7.80;;;6.20;;
3733;SDS011;1882;52.256;8.874;2023-09-08T09:39:25;11.97;;;6.40;;
3733;SDS011;1882;52.256;8.874;2023-09-08T09:41:56;8.50;;;6.13;;
3733;SDS011;1882;52.256;8.874;2023-09-08T09:44:23;14.40;;;6.20;;
3733;SDS011;1882;52.256;8.874;2023-09-08T09:46:55;10.70;;;6.03;;
3733;SDS011;1882;52.256;8.874;2023-09-08T09:49:30;6.93;;;6.03;;
3733;SDS011;1882;52.256;8.874;2023-09-08T09:51:58;8.93;;;6.30;;
3733;SDS011;1882;52.256;8.874;2023-09-08T09:54:25;6.50;;;5.80;;
3733;SDS011;1882;52.256;8.874;2023-09-08T09:56:52;8.27;;;6.23;;
3733;SDS011;1882;52.256;8.874;2023-09-08T09:59:21;6.80;;;6.10;;
3733;SDS011;1882;52.256;8.874;2023-09-08T10:01:49;7.73;;;6.33;;
3733;SDS011;1882;52.256;8.874;2023-09-08T10:04:32;8.17;;;6.20;;
3733;SDS011;1882;52.256;8.874;2023-09-08T10:07:21;6.60;;;6.00;;
3733;SDS011;1882;52.256;8.874;2023-09-08T10:09:48;6.90;;;5.87;;
3733;SDS011;1882;52.256;8.874;2023-09-08T10:12:15;6.67;;;5.90;;
3733;SDS011;1882;52.256;8.874;2023-09-08T10:14:43;6.73;;;6.13;;
3733;SDS011;1882;52.256;8.874;2023-09-08T10:17:15;7.30;;;6.60;;
3733;SDS011;1882;52.256;8.874;2023-09-08T10:19:45;9.03;;;6.50;;
3733;SDS011;1882;52.256;8.874;2023-09-08T10:22:15;10.77;;;6.47;;
3733;SDS011;1882;52.256;8.874;2023-09-08T10:24:46;10.47;;;6.20;;
3733;SDS011;1882;52.256;8.874;2023-09-08T10:27:16;8.67;;;6.87;;
3733;SDS011;1882;52.256;8.874;2023-09-08T10:29:46;8.00;;;6.20;;
3733;SDS011;1882;52.256;8.874;2023-09-08T10:32:14;8.20;;;6.53;;
3733;SDS011;1882;52.256;8.874;2023-09-08T10:34:40;9.43;;;6.50;;
3733;SDS011;1882;52.256;8.874;2023-09-08T10:42:49;8.97;;;6.37;;
3733;SDS011;1882;52.256;8.874;2023-09-08T10:45:16;7.60;;;6.50;;
3733;SDS011;1882;52.256;8.874;2023-09-08T10:50:17;7.90;;;6.60;;
3733;SDS011;1882;52.256;8.874;2023-09-08T10:52:45;8.70;;;6.30;;
3733;SDS011;1882;52.256;8.874;2023-09-08T10:55:52;6.67;;;5.97;;
3733;SDS011;1882;52.256;8.874;2023-09-08T10:58:39;8.90;;;6.70;;
3733;SDS011;1882;52.256;8.874;2023-09-08T11:01:13;9.33;;;6.57;;
3733;SDS011;1882;52.256;8.874;2023-09-08T11:03:44;9.13;;;6.60;;
3733;SDS011;1882;52.256;8.874;2023-09-08T11:06:15;11.20;;;6.50;;
3733;SDS011;1882;52.256;8.874;2023-09-08T11:08:43;9.23;;;6.50;;
3733;SDS011;1882;52.256;8.874;2023-09-08T11:11:11;9.07;;;6.50;;
3733;SDS011;1882;52.256;8.874;2023-09-08T11:13:39;6.37;;;5.77;;
3733;SDS011;1882;52.256;8.874;2023-09-08T11:19:00;6.50;;;5.50;;
3733;SDS011;1882;52.256;8.874;2023-09-08T11:21:42;7.67;;;6.27;;
3733;SDS011;1882;52.256;8.874;2023-09-08T11:24:09;6.80;;;6.10;;
3733;SDS011;1882;52.256;8.874;2023-09-08T11:26:40;7.37;;;5.90;;
3733;SDS011;1882;52.256;8.874;2023-09-08T11:29:10;7.30;;;6.47;;
3733;SDS011;1882;52.256;8.874;2023-09-08T11:31:41;6.43;;;5.70;;
3733;SDS011;1882;52.256;8.874;2023-09-08T11:34:08;7.50;;;6.10;;
3733;SDS011;1882;52.256;8.874;2023-09-08T11:36:41;7.20;;;6.07;;
3733;SDS011;1882;52.256;8.874;2023-09-08T11:39:17;8.50;;;6.00;;
3733;SDS011;1882;52.256;8.874;2023-09-08T11:41:43;7.57;;;6.07;;
3733;SDS011;1882;52.256;8.874;2023-09-08T11:44:18;6.27;;;5.40;;
3733;SDS011;1882;52.256;8.874;2023-09-08T11:47:02;12.30;;;6.10;;
3733;SDS011;1882;52.256;8.874;2023-09-08T11:52:29;7.70;;;5.93;;
3733;SDS011;1882;52.256;8.874;2023-09-08T11:55:01;8.70;;;5.63;;
3733;SDS011;1882;52.256;8.874;2023-09-08T11:57:33;7.17;;;5.63;;
3733;SDS011;1882;52.256;8.874;2023-09-08T12:00:00;7.60;;;5.80;;
3733;SDS011;1882;52.256;8.874;2023-09-08T12:02:29;8.50;;;6.03;;
3733;SDS011;1882;52.256;8.874;2023-09-08T12:05:03;6.57;;;5.87;;
3733;SDS011;1882;52.256;8.874;2023-09-08T12:07:30;6.70;;;6.10;;
3733;SDS011;1882;52.256;8.874;2023-09-08T12:10:06;7.83;;;5.80;;
3733;SDS011;1882;52.256;8.874;2023-09-08T12:15:31;6.30;;;5.50;;
3733;SDS011;1882;52.256;8.874;2023-09-08T12:18:05;6.30;;;5.30;;
3733;SDS011;1882;52.256;8.874;2023-09-08T12:20:36;6.27;;;5.70;;
3733;SDS011;1882;52.256;8.874;2023-09-08T12:23:04;7.20;;;5.70;;
3733;SDS011;1882;52.256;8.874;2023-09-08T12:25:33;6.70;;;5.70;;
3733;SDS011;1882;52.256;8.874;2023-09-08T12:28:10;6.10;;;5.50;;
3733;SDS011;1882;52.256;8.874;2023-09-08T12:30:41;7.43;;;5.30;;
3733;SDS011;1882;52.256;8.874;2023-09-08T12:33:09;7.83;;;5.63;;
3733;SDS011;1882;52.256;8.874;2023-09-08T12:35:44;6.07;;;5.47;;
3733;SDS011;1882;52.256;8.874;2023-09-08T12:38:12;7.30;;;5.27;;
3733;SDS011;1882;52.256;8.874;2023-09-08T12:40:39;10.30;;;4.67;;
3733;SDS011;1882;52.256;8.874;2023-09-08T12:43:07;7.13;;;5.13;;
3733;SDS011;1882;52.256;8.874;2023-09-08T12:45:53;5.80;;;5.00;;
3733;SDS011;1882;52.256;8.874;2023-09-08T12:48:20;5.73;;;5.23;;
3733;SDS011;1882;52.256;8.874;2023-09-08T12:50:47;5.70;;;5.20;;
3733;SDS011;1882;52.256;8.874;2023-09-08T12:53:16;5.83;;;5.33;;
3733;SDS011;1882;52.256;8.874;2023-09-08T12:55:45;8.40;;;4.97;;
3733;SDS011;1882;52.256;8.874;2023-09-08T12:58:12;7.73;;;5.47;;
3733;SDS011;1882;52.256;8.874;2023-09-08T13:00:39;5.63;;;4.60;;
3733;SDS011;1882;52.256;8.874;2023-09-08T13:03:10;5.33;;;4.83;;
3733;SDS011;1882;52.256;8.874;2023-09-08T13:05:36;7.60;;;4.97;;
3733;SDS011;1882;52.256;8.874;2023-09-08T13:08:05;5.13;;;4.70;;
3733;SDS011;1882;52.256;8.874;2023-09-08T13:10:32;5.57;;;4.83;;
3733;SDS011;1882;52.256;8.874;2023-09-08T13:12:59;4.93;;;4.50;;
3733;SDS011;1882;52.256;8.874;2023-09-08T13:15:36;5.43;;;4.93;;
3733;SDS011;1882;52.256;8.874;2023-09-08T13:18:03;6.90;;;5.00;;
3733;SDS011;1882;52.256;8.874;2023-09-08T13:20:37;8.33;;;5.10;;
3733;SDS011;1882;52.256;8.874;2023-09-08T13:23:04;5.50;;;5.00;;
3733;SDS011;1882;52.256;8.874;2023-09-08T13:25:30;5.50;;;5.00;;
3733;SDS011;1882;52.256;8.874;2023-09-08T13:27:57;4.87;;;4.47;;
3733;SDS011;1882;52.256;8.874;2023-09-08T13:30:24;5.67;;;5.17;;
3733;SDS011;1882;52.256;8.874;2023-09-08T13:32:53;5.50;;;5.00;;
3733;SDS011;1882;52.256;8.874;2023-09-08T13:35:22;5.90;;;5.23;;
3733;SDS011;1882;52.256;8.874;2023-09-08T13:37:49;6.77;;;5.70;;
3733;SDS011;1882;52.256;8.874;2023-09-08T13:40:15;5.97;;;5.20;;
3733;SDS011;1882;52.256;8.874;2023-09-08T13:42:42;6.13;;;5.00;;
3733;SDS011;1882;52.256;8.874;2023-09-08T13:45:18;6.30;;;5.63;;
3733;SDS011;1882;52.256;8.874;2023-09-08T13:47:45;5.80;;;5.20;;
3733;SDS011;1882;52.256;8.874;2023-09-08T13:50:22;5.97;;;4.90;;
3733;SDS011;1882;52.256;8.874;2023-09-08T13:52:52;7.87;;;5.43;;
3733;SDS011;1882;52.256;8.874;2023-09-08T13:55:23;6.63;;;5.43;;
3733;SDS011;1882;52.256;8.874;2023-09-08T13:58:04;7.50;;;5.57;;
3733;SDS011;1882;52.256;8.874;2023-09-08T14:00:40;6.00;;;5.50;;
3733;SDS011;1882;52.256;8.874;2023-09-08T14:03:11;11.07;;;6.17;;
3733;SDS011;1882;52.256;8.874;2023-09-08T14:05:40;9.57;;;5.57;;
3733;SDS011;1882;52.256;8.874;2023-09-08T14:08:12;13.10;;;5.97;;
3733;SDS011;1882;52.256;8.874;2023-09-08T14:10:52;9.00;;;5.83;;
3733;SDS011;1882;52.256;8.874;2023-09-08T14:13:23;10.63;;;5.20;;
3733;SDS011;1882;52.256;8.874;2023-09-08T14:15:50;11.77;;;6.20;;
3733;SDS011;1882;52.256;8.874;2023-09-08T14:18:50;6.43;;;5.60;;
3733;SDS011;1882;52.256;8.874;2023-09-08T14:21:17;6.73;;;5.93;;
3733;SDS011;1882;52.256;8.874;2023-09-08T14:23:52;6.53;;;5.80;;
3733;SDS011;1882;52.256;8.874;2023-09-08T14:26:19;10.27;;;6.17;;
3733;SDS011;1882;52.256;8.874;2023-09-08T14:28:46;8.87;;;6.27;;
3733;SDS011;1882;52.256;8.874;2023-09-08T14:31:13;6.77;;;5.93;;
3733;SDS011;1882;52.256;8.874;2023-09-08T14:33:40;6.97;;;5.80;;
3733;SDS011;1882;52.256;8.874;2023-09-08T14:36:09;10.47;;;6.23;;
3733;SDS011;1882;52.256;8.874;2023-09-08T14:38:36;8.10;;;6.37;;
3733;SDS011;1882;52.256;8.874;2023-09-08T14:41:03;8.63;;;6.00;;
3733;SDS011;1882;52.256;8.874;2023-09-08T14:43:41;9.90;;;6.07;;
3733;SDS011;1882;52.256;8.874;2023-09-08T14:46:08;9.70;;;6.00;;
3733;SDS011;1882;52.256;8.874;2023-09-08T14:48:34;9.70;;;6.13;;
3733;SDS011;1882;52.256;8.874;2023-09-08T14:51:02;7.57;;;6.03;;
3733;SDS011;1882;52.256;8.874;2023-09-08T14:53:30;8.20;;;6.03;;
3733;SDS011;1882;52.256;8.874;2023-09-08T14:56:01;12.93;;;6.50;;
3733;SDS011;1882;52.256;8.874;2023-09-08T14:58:30;7.60;;;6.30;;
3733;SDS011;1882;52.256;8.874;2023-09-08T15:01:08;7.17;;;6.47;;
3733;SDS011;1882;52.256;8.874;2023-09-08T15:03:38;10.80;;;5.87;;
3733;SDS011;1882;52.256;8.874;2023-09-08T15:06:07;6.77;;;5.90;;
3733;SDS011;1882;52.256;8.874;2023-09-08T15:08:35;6.10;;;5.50;;
3733;SDS011;1882;52.256;8.874;2023-09-08T15:11:02;8.57;;;6.30;;
3733;SDS011;1882;52.256;8.874;2023-09-08T15:13:29;6.63;;;6.03;;
3733;SDS011;1882;52.256;8.874;2023-09-08T15:15:57;12.17;;;5.70;;
3733;SDS011;1882;52.256;8.874;2023-09-08T15:18:33;12.03;;;6.30;;
3733;SDS011;1882;52.256;8.874;2023-09-08T15:21:00;7.57;;;6.30;;
3733;SDS011;1882;52.256;8.874;2023-09-08T15:23:29;9.47;;;6.40;;
3733;SDS011;1882;52.256;8.874;2023-09-08T15:26:04;7.20;;;6.50;;
3733;SDS011;1882;52.256;8.874;2023-09-08T15:28:34;7.43;;;6.63;;
3733;SDS011;1882;52.256;8.874;2023-09-08T15:31:14;7.03;;;6.33;;
3733;SDS011;1882;52.256;8.874;2023-09-08T15:33:42;8.43;;;6.30;;
3733;SDS011;1882;52.256;8.874;2023-09-08T15:36:09;8.50;;;6.50;;
3733;SDS011;1882;52.256;8.874;2023-09-08T15:38:35;10.00;;;6.90;;
3733;SDS011;1882;52.256;8.874;2023-09-08T15:43:34;13.80;;;6.70;;
3733;SDS011;1882;52.256;8.874;2023-09-08T15:46:05;8.67;;;6.30;;
3733;SDS011;1882;52.256;8.874;2023-09-08T15:48:36;8.97;;;6.30;;
3733;SDS011;1882;52.256;8.874;2023-09-08T15:51:09;9.57;;;6.83;;
3733;SDS011;1882;52.256;8.874;2023-09-08T15:53:45;9.90;;;6.70;;